AirNav   Duncan Aviation - Near you to keep you flying
 
 1137 users online  

24MO Mistwood Airport
Camdenton, Missouri, USA

GOING TO CAMDENTON?


FAA INFORMATION EFFECTIVE 03 NOVEMBER 2022

Location

FAA Identifier: 24MO
Lat/Long: 38-07-57.7200N 092-49-49.6600W
38-07.962000N 092-49.827667W
38.1327000,-92.8304611
(estimated)
Elevation: 875 ft. / 267 m (estimated)
Variation: 04E (1985)
From city: 13 miles NW of CAMDENTON, MO
Time zone: UTC -6 (UTC -5 during Daylight Saving Time)
Zip code: 65020

Airport Operations

Airport use: Private use. Permission required prior to landing
Activation date: 01/1978
Control tower: no
ARTCC: KANSAS CITY CENTER
FSS: COLUMBIA FLIGHT SERVICE STATION
Attendance: UNATNDD
Wind indicator: yes
Segmented circle: no

Airport Communications

UNICOM: 122.8
WX AWOS-3 at OZS (12 nm SE): 120.225 (573-317-0412)
WX AWOS-3PT at AIZ (13 nm E): 135.325 (573-348-0847)

Nearby radio navigation aids

VOR radial/distance  VOR name  Freq  Var
SHYr297/12.1SUNSHINE VOR/DME108.4000E

Airport Services

Runway Information

Runway 7/25

Dimensions: 2830 x 36 ft. / 863 x 11 m
Surface: asphalt
RUNWAY 7  RUNWAY 25
Latitude: 38-07.945800N38-07.978200N
Longitude: 092-50.122200W092-49.533250W
Elevation: 875.0 ft.815.0 ft.
Traffic pattern: leftleft

Airport Ownership and Management from official FAA records

Ownership: Privately-owned
Owner: MISTPORT, LLC
2404 NORTHLINE INDUSTRIAL DR.
ST LOUIS, MO 63043
Phone (314) 566-7619
Manager: DONALD S MC LAUGHLIN
2404 NORTHLINE INDUSTRIAL DR.
ST LOUIS, MO 63043
Phone (314) 566-7619

Airport Operational Statistics

Aircraft based on the field: 3
Single engine airplanes: 3
    

Additional Remarks

FOR CD CTC MIZZOU APCH AT 417-868-5620/5619.

Instrument Procedures

There are no published instrument procedures at 24MO.

Some nearby airports with instrument procedures:

K15 - Grand Glaize-Osage Beach Airport (7 nm E)
KOZS - Camdenton Memorial-Lake Regional Airport (12 nm SE)
KAIZ - Lee C Fine Memorial Airport (13 nm E)
H79 - Eldon Model Airpark (18 nm NE)
KRAW - Warsaw Municipal Airport (27 nm NW)
 
Loc | Ops | Rwys | IFR | FBO | Links
Com | Nav | Svcs | Stats | Notes
Area around 24MO (Mistwood Airport)
 
Road maps at: MapQuest Bing Google
 
Aerial photo
WARNING: Photo may not be current or correct
Aerial photo of 24MO (Mistwood Airport)
Do you have a better or more recent aerial photo of Mistwood Airport that you would like to share? If so, please send us your photo.

 
Sectional chart

 
Airport distance calculator
Flying to Mistwood Airport? Find the distance to fly.

From to 24MO

Sunrise and sunset
Times for 29-Nov-2022
 Local
(UTC-6)
 Zulu
(UTC)
Morning civil twilight06:3912:39
Sunrise07:0813:08
Sunset16:5122:51
Evening civil twilight17:2023:20

Current date and time
Zulu (UTC)  30-Nov-2022 00:01:59
Local (UTC-6)  29-Nov-2022 18:01:59
 
METAR
KOZS 
12nm SE 
292355Z AUTO 29020G32KT 10SM BKN021 06/01 A2975 RMK AO2
KAIZ 
14nm E 
292356Z AUTO 29011G20KT 10SM BKN021 07/02 RMK AO2 SLPNO T00720022 10211 20072 $
TAF
KTBN 
42nm SE 
292200Z 2922/0104 22020G30KT 9999 VCSH SCT045 510022 QNH2953INS BECMG 3003/3004 30012KT 9999 SCT020 QNH2980INS TX22/2922Z TNM04/3011Z LAST NO AMNDS AFT 29/23Z NEXT 30/14Z
KJEF 
43nm NE 
292123Z 2921/3018 26016G29KT P6SM BKN045 FM292300 28015G29KT P6SM BKN025 FM300100 30015G25KT P6SM SCT025
KSZL 
48nm NW 
292139Z 2921/0101 31015G25KT 9999 BKN020 620204 QNH2965INS BECMG 2921/2923 30015G25KT 9999 OVC015 620155 QNH2975INS BECMG 3003/3004 31015G25KT 9999 BKN030 620303 QNH2980INS BECMG 3006/3007 30012KT 9999 FEW120 QNH3010INS BECMG 3015/3016 29012G20KT 9999 SKC QNH3030INS TX05/2922Z TNM03/3012Z
NOTAMs
Click for the latest NOTAMs
NOTAMs are issued by the DoD/FAA and will open in a separate window not controlled by AirNav.

 

 
 

Would you like to see your business listed on this page?

 If your business provides an interesting product or service to pilots, flight crews, aircraft, or users of the Mistwood Airport, you should consider listing it here.  To start the listing process, click on the button below
 
Add a business
 

Other Pages about Mistwood Airport

www.mistwood.com
 
Update a link
 
Copyright © AirNav, LLC. All rights reserved. Privacy Policy  Contact